sensor_id;sensor_type;location;lat;lon;timestamp;P1;durP1;ratioP1;P2;durP2;ratioP2
26824;SDS011;14402;48.178;11.566;2022-10-23T00:00:24;4.4;;;2.2;;
26824;SDS011;14402;48.178;11.566;2022-10-23T00:00:54;4.4;;;2.2;;
26824;SDS011;14402;48.178;11.566;2022-10-23T00:01:26;4.4;;;2.2;;
26824;SDS011;14402;48.178;11.566;2022-10-23T00:01:55;4.5;;;2.2;;
26824;SDS011;14402;48.178;11.566;2022-10-23T00:02:25;4.5;;;2.2;;
26824;SDS011;14402;48.178;11.566;2022-10-23T00:02:55;4.5;;;2.2;;
26824;SDS011;14402;48.178;11.566;2022-10-23T00:03:25;5.0;;;2.2;;
26824;SDS011;14402;48.178;11.566;2022-10-23T00:03:56;5.5;;;2.2;;
26824;SDS011;14402;48.178;11.566;2022-10-23T00:04:25;5.5;;;2.2;;
26824;SDS011;14402;48.178;11.566;2022-10-23T00:04:55;5.5;;;2.2;;
26824;SDS011;14402;48.178;11.566;2022-10-23T00:05:25;5.5;;;2.0;;
26824;SDS011;14402;48.178;11.566;2022-10-23T00:05:55;5.5;;;1.9;;
26824;SDS011;14402;48.178;11.566;2022-10-23T00:06:26;5.5;;;1.9;;
26824;SDS011;14402;48.178;11.566;2022-10-23T00:06:55;5.5;;;1.9;;
26824;SDS011;14402;48.178;11.566;2022-10-23T00:07:25;4.3;;;1.8;;
26824;SDS011;14402;48.178;11.566;2022-10-23T00:07:56;3.2;;;1.8;;
26824;SDS011;14402;48.178;11.566;2022-10-23T00:08:26;3.2;;;1.8;;
26824;SDS011;14402;48.178;11.566;2022-10-23T00:08:56;3.2;;;1.8;;
26824;SDS011;14402;48.178;11.566;2022-10-23T00:09:26;3.0;;;1.8;;
26824;SDS011;14402;48.178;11.566;2022-10-23T00:09:56;2.8;;;1.8;;
26824;SDS011;14402;48.178;11.566;2022-10-23T00:10:26;2.8;;;1.8;;
26824;SDS011;14402;48.178;11.566;2022-10-23T00:10:56;2.8;;;1.8;;
26824;SDS011;14402;48.178;11.566;2022-10-23T00:11:27;2.9;;;1.8;;
26824;SDS011;14402;48.178;11.566;2022-10-23T00:11:56;3.1;;;1.7;;
26824;SDS011;14402;48.178;11.566;2022-10-23T00:12:26;3.1;;;1.7;;
26824;SDS011;14402;48.178;11.566;2022-10-23T00:12:56;3.1;;;1.7;;
26824;SDS011;14402;48.178;11.566;2022-10-23T00:13:26;2.9;;;1.8;;
26824;SDS011;14402;48.178;11.566;2022-10-23T00:13:57;2.7;;;1.9;;
26824;SDS011;14402;48.178;11.566;2022-10-23T00:14:26;2.7;;;1.9;;
26824;SDS011;14402;48.178;11.566;2022-10-23T00:14:56;2.7;;;1.9;;
26824;SDS011;14402;48.178;11.566;2022-10-23T00:15:26;2.9;;;1.7;;
26824;SDS011;14402;48.178;11.566;2022-10-23T00:15:57;3.1;;;1.5;;
26824;SDS011;14402;48.178;11.566;2022-10-23T00:16:27;3.1;;;1.5;;
26824;SDS011;14402;48.178;11.566;2022-10-23T00:16:57;3.1;;;1.5;;
26824;SDS011;14402;48.178;11.566;2022-10-23T00:17:30;3.5;;;1.6;;
26824;SDS011;14402;48.178;11.566;2022-10-23T00:17:57;3.9;;;1.7;;
26824;SDS011;14402;48.178;11.566;2022-10-23T00:18:27;3.9;;;1.7;;
26824;SDS011;14402;48.178;11.566;2022-10-23T00:18:57;3.9;;;1.7;;
26824;SDS011;14402;48.178;11.566;2022-10-23T00:19:27;3.4;;;1.7;;
26824;SDS011;14402;48.178;11.566;2022-10-23T00:19:57;2.9;;;1.6;;
26824;SDS011;14402;48.178;11.566;2022-10-23T00:20:27;2.9;;;1.6;;
26824;SDS011;14402;48.178;11.566;2022-10-23T00:20:57;2.9;;;1.6;;
26824;SDS011;14402;48.178;11.566;2022-10-23T00:21:27;3.6;;;1.5;;
26824;SDS011;14402;48.178;11.566;2022-10-23T00:21:58;4.3;;;1.4;;
26824;SDS011;14402;48.178;11.566;2022-10-23T00:22:28;4.3;;;1.4;;
26824;SDS011;14402;48.178;11.566;2022-10-23T00:22:58;4.3;;;1.4;;
26824;SDS011;14402;48.178;11.566;2022-10-23T00:23:28;4.9;;;1.4;;
26824;SDS011;14402;48.178;11.566;2022-10-23T00:23:58;5.4;;;1.4;;
26824;SDS011;14402;48.178;11.566;2022-10-23T00:24:28;5.4;;;1.4;;
26824;SDS011;14402;48.178;11.566;2022-10-23T00:24:58;5.4;;;1.4;;
26824;SDS011;14402;48.178;11.566;2022-10-23T00:25:28;3.7;;;1.3;;
26824;SDS011;14402;48.178;11.566;2022-10-23T00:25:58;1.9;;;1.3;;
26824;SDS011;14402;48.178;11.566;2022-10-23T00:26:28;1.9;;;1.3;;
26824;SDS011;14402;48.178;11.566;2022-10-23T00:26:58;1.9;;;1.3;;
26824;SDS011;14402;48.178;11.566;2022-10-23T00:27:28;2.5;;;1.4;;
26824;SDS011;14402;48.178;11.566;2022-10-23T00:27:58;3.2;;;1.5;;
26824;SDS011;14402;48.178;11.566;2022-10-23T00:28:28;3.2;;;1.5;;
26824;SDS011;14402;48.178;11.566;2022-10-23T00:28:59;3.2;;;1.5;;
26824;SDS011;14402;48.178;11.566;2022-10-23T00:29:29;3.0;;;1.4;;
26824;SDS011;14402;48.178;11.566;2022-10-23T00:29:59;2.7;;;1.2;;
26824;SDS011;14402;48.178;11.566;2022-10-23T00:30:29;2.7;;;1.2;;
26824;SDS011;14402;48.178;11.566;2022-10-23T00:31:00;2.7;;;1.2;;
26824;SDS011;14402;48.178;11.566;2022-10-23T00:31:29;2.8;;;1.4;;
26824;SDS011;14402;48.178;11.566;2022-10-23T00:31:59;2.8;;;1.6;;
26824;SDS011;14402;48.178;11.566;2022-10-23T00:32:29;2.8;;;1.6;;
26824;SDS011;14402;48.178;11.566;2022-10-23T00:32:59;2.8;;;1.6;;
26824;SDS011;14402;48.178;11.566;2022-10-23T00:33:29;2.6;;;1.4;;
26824;SDS011;14402;48.178;11.566;2022-10-23T00:33:59;2.4;;;1.2;;
26824;SDS011;14402;48.178;11.566;2022-10-23T00:34:29;2.4;;;1.2;;
26824;SDS011;14402;48.178;11.566;2022-10-23T00:34:59;2.4;;;1.2;;
26824;SDS011;14402;48.178;11.566;2022-10-23T00:35:29;3.2;;;1.3;;
26824;SDS011;14402;48.178;11.566;2022-10-23T00:36:00;3.9;;;1.4;;
26824;SDS011;14402;48.178;11.566;2022-10-23T00:36:30;3.9;;;1.4;;
26824;SDS011;14402;48.178;11.566;2022-10-23T00:37:00;3.9;;;1.4;;
26824;SDS011;14402;48.178;11.566;2022-10-23T00:37:30;2.7;;;1.3;;
26824;SDS011;14402;48.178;11.566;2022-10-23T00:38:00;1.5;;;1.3;;
26824;SDS011;14402;48.178;11.566;2022-10-23T00:38:30;1.5;;;1.3;;
26824;SDS011;14402;48.178;11.566;2022-10-23T00:39:00;1.5;;;1.3;;
26824;SDS011;14402;48.178;11.566;2022-10-23T00:39:30;2.5;;;1.4;;
26824;SDS011;14402;48.178;11.566;2022-10-23T00:40:00;3.4;;;1.5;;
26824;SDS011;14402;48.178;11.566;2022-10-23T00:40:31;3.4;;;1.5;;
26824;SDS011;14402;48.178;11.566;2022-10-23T00:41:01;3.4;;;1.5;;
26824;SDS011;14402;48.178;11.566;2022-10-23T00:41:30;2.7;;;1.5;;
26824;SDS011;14402;48.178;11.566;2022-10-23T00:42:01;2.0;;;1.5;;
26824;SDS011;14402;48.178;11.566;2022-10-23T00:42:30;2.0;;;1.5;;
26824;SDS011;14402;48.178;11.566;2022-10-23T00:43:01;2.0;;;1.5;;
26824;SDS011;14402;48.178;11.566;2022-10-23T00:43:31;2.0;;;1.4;;
26824;SDS011;14402;48.178;11.566;2022-10-23T00:44:03;2.0;;;1.2;;
26824;SDS011;14402;48.178;11.566;2022-10-23T00:45:36;2.2;;;1.2;;
26824;SDS011;14402;48.178;11.566;2022-10-23T00:45:36;2.0;;;1.2;;
26824;SDS011;14402;48.178;11.566;2022-10-23T00:45:36;2.0;;;1.2;;
26824;SDS011;14402;48.178;11.566;2022-10-23T00:46:01;2.3;;;1.2;;
26824;SDS011;14402;48.178;11.566;2022-10-23T00:46:32;2.3;;;1.2;;
26824;SDS011;14402;48.178;11.566;2022-10-23T00:47:01;2.3;;;1.2;;
26824;SDS011;14402;48.178;11.566;2022-10-23T00:47:31;3.7;;;1.3;;
26824;SDS011;14402;48.178;11.566;2022-10-23T00:48:02;5.1;;;1.4;;
26824;SDS011;14402;48.178;11.566;2022-10-23T00:48:31;5.1;;;1.4;;
26824;SDS011;14402;48.178;11.566;2022-10-23T00:49:02;5.1;;;1.4;;
26824;SDS011;14402;48.178;11.566;2022-10-23T00:49:31;3.4;;;1.3;;
26824;SDS011;14402;48.178;11.566;2022-10-23T00:50:02;1.7;;;1.2;;
26824;SDS011;14402;48.178;11.566;2022-10-23T00:50:32;1.7;;;1.2;;
26824;SDS011;14402;48.178;11.566;2022-10-23T00:51:02;1.7;;;1.2;;
26824;SDS011;14402;48.178;11.566;2022-10-23T00:51:32;1.8;;;1.2;;
26824;SDS011;14402;48.178;11.566;2022-10-23T00:52:03;1.8;;;1.2;;
26824;SDS011;14402;48.178;11.566;2022-10-23T00:52:32;1.8;;;1.2;;
26824;SDS011;14402;48.178;11.566;2022-10-23T00:53:02;1.8;;;1.2;;
26824;SDS011;14402;48.178;11.566;2022-10-23T00:53:32;2.0;;;1.2;;
26824;SDS011;14402;48.178;11.566;2022-10-23T00:54:02;2.3;;;1.3;;
26824;SDS011;14402;48.178;11.566;2022-10-23T00:54:33;2.3;;;1.3;;
26824;SDS011;14402;48.178;11.566;2022-10-23T00:55:02;2.3;;;1.3;;
26824;SDS011;14402;48.178;11.566;2022-10-23T00:55:32;2.0;;;1.3;;
26824;SDS011;14402;48.178;11.566;2022-10-23T00:56:02;1.7;;;1.3;;
26824;SDS011;14402;48.178;11.566;2022-10-23T00:56:32;1.7;;;1.3;;
26824;SDS011;14402;48.178;11.566;2022-10-23T00:57:03;1.7;;;1.3;;
26824;SDS011;14402;48.178;11.566;2022-10-23T00:57:32;2.1;;;1.2;;
26824;SDS011;14402;48.178;11.566;2022-10-23T00:58:03;2.5;;;1.1;;
26824;SDS011;14402;48.178;11.566;2022-10-23T00:58:33;2.5;;;1.1;;
26824;SDS011;14402;48.178;11.566;2022-10-23T00:59:03;2.5;;;1.1;;
26824;SDS011;14402;48.178;11.566;2022-10-23T00:59:33;2.2;;;1.1;;
26824;SDS011;14402;48.178;11.566;2022-10-23T01:00:03;1.9;;;1.1;;
26824;SDS011;14402;48.178;11.566;2022-10-23T01:00:39;1.9;;;1.1;;
26824;SDS011;14402;48.178;11.566;2022-10-23T01:01:13;1.9;;;1.1;;
26824;SDS011;14402;48.178;11.566;2022-10-23T01:01:33;1.8;;;1.1;;
26824;SDS011;14402;48.178;11.566;2022-10-23T01:02:03;1.6;;;1.1;;
26824;SDS011;14402;48.178;11.566;2022-10-23T01:02:33;1.6;;;1.1;;
26824;SDS011;14402;48.178;11.566;2022-10-23T01:03:03;1.6;;;1.1;;
26824;SDS011;14402;48.178;11.566;2022-10-23T01:03:33;1.8;;;1.1;;
26824;SDS011;14402;48.178;11.566;2022-10-23T01:04:04;2.1;;;1.1;;
26824;SDS011;14402;48.178;11.566;2022-10-23T01:04:33;2.1;;;1.1;;
26824;SDS011;14402;48.178;11.566;2022-10-23T01:05:04;2.1;;;1.1;;
26824;SDS011;14402;48.178;11.566;2022-10-23T01:05:35;2.0;;;1.2;;
26824;SDS011;14402;48.178;11.566;2022-10-23T01:06:05;2.0;;;1.3;;
26824;SDS011;14402;48.178;11.566;2022-10-23T01:06:34;2.0;;;1.3;;
26824;SDS011;14402;48.178;11.566;2022-10-23T01:07:04;2.0;;;1.3;;
26824;SDS011;14402;48.178;11.566;2022-10-23T01:07:35;3.0;;;1.2;;
26824;SDS011;14402;48.178;11.566;2022-10-23T01:08:05;3.9;;;1.1;;
26824;SDS011;14402;48.178;11.566;2022-10-23T01:08:34;3.9;;;1.1;;
26824;SDS011;14402;48.178;11.566;2022-10-23T01:09:07;3.9;;;1.1;;
26824;SDS011;14402;48.178;11.566;2022-10-23T01:09:35;3.3;;;1.2;;
26824;SDS011;14402;48.178;11.566;2022-10-23T01:10:05;2.8;;;1.3;;
26824;SDS011;14402;48.178;11.566;2022-10-23T01:10:35;2.8;;;1.3;;
26824;SDS011;14402;48.178;11.566;2022-10-23T01:11:06;2.8;;;1.3;;
26824;SDS011;14402;48.178;11.566;2022-10-23T01:11:36;2.4;;;1.3;;
26824;SDS011;14402;48.178;11.566;2022-10-23T01:12:06;2.0;;;1.3;;
26824;SDS011;14402;48.178;11.566;2022-10-23T01:12:37;2.0;;;1.3;;
26824;SDS011;14402;48.178;11.566;2022-10-23T01:13:05;2.0;;;1.3;;
26824;SDS011;14402;48.178;11.566;2022-10-23T01:13:36;2.5;;;1.3;;
26824;SDS011;14402;48.178;11.566;2022-10-23T01:14:05;3.1;;;1.4;;
26824;SDS011;14402;48.178;11.566;2022-10-23T01:14:36;3.1;;;1.4;;
26824;SDS011;14402;48.178;11.566;2022-10-23T01:15:05;3.1;;;1.4;;
26824;SDS011;14402;48.178;11.566;2022-10-23T01:15:36;2.5;;;1.3;;
26824;SDS011;14402;48.178;11.566;2022-10-23T01:16:06;1.9;;;1.3;;
26824;SDS011;14402;48.178;11.566;2022-10-23T01:16:36;1.9;;;1.3;;
26824;SDS011;14402;48.178;11.566;2022-10-23T01:17:39;2.0;;;1.2;;
26824;SDS011;14402;48.178;11.566;2022-10-23T01:18:06;2.0;;;1.2;;
26824;SDS011;14402;48.178;11.566;2022-10-23T01:18:37;2.0;;;1.2;;
26824;SDS011;14402;48.178;11.566;2022-10-23T01:19:07;2.0;;;1.2;;
26824;SDS011;14402;48.178;11.566;2022-10-23T01:19:42;3.0;;;1.3;;
26824;SDS011;14402;48.178;11.566;2022-10-23T01:20:10;4.0;;;1.4;;
26824;SDS011;14402;48.178;11.566;2022-10-23T01:20:38;4.0;;;1.4;;
26824;SDS011;14402;48.178;11.566;2022-10-23T01:21:07;4.0;;;1.4;;
26824;SDS011;14402;48.178;11.566;2022-10-23T01:21:37;3.6;;;1.3;;
26824;SDS011;14402;48.178;11.566;2022-10-23T01:22:08;3.2;;;1.2;;
26824;SDS011;14402;48.178;11.566;2022-10-23T01:22:40;3.2;;;1.2;;
26824;SDS011;14402;48.178;11.566;2022-10-23T01:23:16;3.2;;;1.2;;
26824;SDS011;14402;48.178;11.566;2022-10-23T01:23:41;2.6;;;1.2;;
26824;SDS011;14402;48.178;11.566;2022-10-23T01:24:08;2.0;;;1.1;;
26824;SDS011;14402;48.178;11.566;2022-10-23T01:24:39;2.0;;;1.1;;
26824;SDS011;14402;48.178;11.566;2022-10-23T01:25:07;2.0;;;1.1;;
26824;SDS011;14402;48.178;11.566;2022-10-23T01:25:40;2.2;;;1.1;;
26824;SDS011;14402;48.178;11.566;2022-10-23T01:26:10;2.3;;;1.1;;
26824;SDS011;14402;48.178;11.566;2022-10-23T01:26:39;2.3;;;1.1;;
26824;SDS011;14402;48.178;11.566;2022-10-23T01:27:12;2.3;;;1.1;;
26824;SDS011;14402;48.178;11.566;2022-10-23T01:27:37;2.1;;;1.0;;
26824;SDS011;14402;48.178;11.566;2022-10-23T01:28:07;1.9;;;1.0;;
26824;SDS011;14402;48.178;11.566;2022-10-23T01:28:38;1.9;;;1.0;;
26824;SDS011;14402;48.178;11.566;2022-10-23T01:29:08;1.9;;;1.0;;
26824;SDS011;14402;48.178;11.566;2022-10-23T01:29:38;2.1;;;1.0;;
26824;SDS011;14402;48.178;11.566;2022-10-23T01:30:08;2.3;;;1.0;;
26824;SDS011;14402;48.178;11.566;2022-10-23T01:30:38;2.3;;;1.0;;
26824;SDS011;14402;48.178;11.566;2022-10-23T01:31:07;2.3;;;1.0;;
26824;SDS011;14402;48.178;11.566;2022-10-23T01:31:38;3.0;;;1.0;;
26824;SDS011;14402;48.178;11.566;2022-10-23T01:32:08;3.7;;;1.0;;
26824;SDS011;14402;48.178;11.566;2022-10-23T01:32:38;3.7;;;1.0;;
26824;SDS011;14402;48.178;11.566;2022-10-23T01:33:08;3.7;;;1.0;;
26824;SDS011;14402;48.178;11.566;2022-10-23T01:33:38;3.1;;;1.0;;
26824;SDS011;14402;48.178;11.566;2022-10-23T01:34:08;2.5;;;1.0;;
26824;SDS011;14402;48.178;11.566;2022-10-23T01:34:40;2.5;;;1.0;;
26824;SDS011;14402;48.178;11.566;2022-10-23T01:35:11;2.5;;;1.0;;
26824;SDS011;14402;48.178;11.566;2022-10-23T01:35:39;2.0;;;1.1;;
26824;SDS011;14402;48.178;11.566;2022-10-23T01:36:09;1.6;;;1.2;;
26824;SDS011;14402;48.178;11.566;2022-10-23T01:36:38;1.6;;;1.2;;
26824;SDS011;14402;48.178;11.566;2022-10-23T01:37:08;1.6;;;1.2;;
26824;SDS011;14402;48.178;11.566;2022-10-23T01:37:38;2.2;;;1.0;;
26824;SDS011;14402;48.178;11.566;2022-10-23T01:38:08;2.7;;;0.9;;
26824;SDS011;14402;48.178;11.566;2022-10-23T01:38:40;2.7;;;0.9;;
26824;SDS011;14402;48.178;11.566;2022-10-23T01:39:09;2.7;;;0.9;;
26824;SDS011;14402;48.178;11.566;2022-10-23T01:39:39;3.1;;;1.0;;
26824;SDS011;14402;48.178;11.566;2022-10-23T01:40:09;3.4;;;1.1;;
26824;SDS011;14402;48.178;11.566;2022-10-23T01:40:40;3.4;;;1.1;;
26824;SDS011;14402;48.178;11.566;2022-10-23T01:41:09;3.4;;;1.1;;
26824;SDS011;14402;48.178;11.566;2022-10-23T01:41:39;2.3;;;1.0;;
26824;SDS011;14402;48.178;11.566;2022-10-23T01:42:09;1.3;;;0.9;;
26824;SDS011;14402;48.178;11.566;2022-10-23T01:42:40;1.3;;;0.9;;
26824;SDS011;14402;48.178;11.566;2022-10-23T01:43:09;1.3;;;0.9;;
26824;SDS011;14402;48.178;11.566;2022-10-23T01:43:39;2.2;;;0.9;;
26824;SDS011;14402;48.178;11.566;2022-10-23T01:44:10;3.0;;;0.8;;
26824;SDS011;14402;48.178;11.566;2022-10-23T01:44:40;3.0;;;0.8;;
26824;SDS011;14402;48.178;11.566;2022-10-23T01:45:10;3.0;;;0.8;;
26824;SDS011;14402;48.178;11.566;2022-10-23T01:45:39;3.0;;;0.9;;
26824;SDS011;14402;48.178;11.566;2022-10-23T01:46:10;3.0;;;0.9;;
26824;SDS011;14402;48.178;11.566;2022-10-23T01:46:39;3.0;;;0.9;;
26824;SDS011;14402;48.178;11.566;2022-10-23T01:47:09;3.0;;;0.9;;
26824;SDS011;14402;48.178;11.566;2022-10-23T01:47:39;2.8;;;0.9;;
26824;SDS011;14402;48.178;11.566;2022-10-23T01:48:10;2.6;;;1.0;;
26824;SDS011;14402;48.178;11.566;2022-10-23T01:48:39;2.6;;;1.0;;
26824;SDS011;14402;48.178;11.566;2022-10-23T01:49:10;2.6;;;1.0;;
26824;SDS011;14402;48.178;11.566;2022-10-23T01:49:39;2.5;;;1.1;;
26824;SDS011;14402;48.178;11.566;2022-10-23T01:50:10;2.4;;;1.2;;
26824;SDS011;14402;48.178;11.566;2022-10-23T01:50:40;2.4;;;1.2;;
26824;SDS011;14402;48.178;11.566;2022-10-23T01:51:10;2.4;;;1.2;;
26824;SDS011;14402;48.178;11.566;2022-10-23T01:51:40;2.4;;;1.0;;
26824;SDS011;14402;48.178;11.566;2022-10-23T01:52:10;2.4;;;0.9;;
26824;SDS011;14402;48.178;11.566;2022-10-23T01:52:40;2.4;;;0.9;;
26824;SDS011;14402;48.178;11.566;2022-10-23T01:53:10;2.4;;;0.9;;
26824;SDS011;14402;48.178;11.566;2022-10-23T01:53:40;3.7;;;1.1;;
26824;SDS011;14402;48.178;11.566;2022-10-23T01:54:10;5.0;;;1.3;;
26824;SDS011;14402;48.178;11.566;2022-10-23T01:54:41;5.0;;;1.3;;
26824;SDS011;14402;48.178;11.566;2022-10-23T01:55:10;5.0;;;1.3;;
26824;SDS011;14402;48.178;11.566;2022-10-23T01:55:40;4.0;;;1.0;;
26824;SDS011;14402;48.178;11.566;2022-10-23T01:56:11;2.9;;;0.8;;
26824;SDS011;14402;48.178;11.566;2022-10-23T01:56:41;2.9;;;0.8;;
26824;SDS011;14402;48.178;11.566;2022-10-23T01:57:12;2.9;;;0.8;;
26824;SDS011;14402;48.178;11.566;2022-10-23T01:57:41;3.1;;;0.8;;
26824;SDS011;14402;48.178;11.566;2022-10-23T01:58:11;3.3;;;0.8;;
26824;SDS011;14402;48.178;11.566;2022-10-23T01:58:41;3.3;;;0.8;;
26824;SDS011;14402;48.178;11.566;2022-10-23T01:59:12;3.3;;;0.8;;
26824;SDS011;14402;48.178;11.566;2022-10-23T01:59:41;2.2;;;0.8;;
26824;SDS011;14402;48.178;11.566;2022-10-23T02:00:12;1.1;;;0.7;;
26824;SDS011;14402;48.178;11.566;2022-10-23T02:00:41;1.1;;;0.7;;
26824;SDS011;14402;48.178;11.566;2022-10-23T02:01:11;1.1;;;0.7;;
26824;SDS011;14402;48.178;11.566;2022-10-23T02:01:42;1.9;;;0.8;;
26824;SDS011;14402;48.178;11.566;2022-10-23T02:02:11;2.7;;;0.9;;
26824;SDS011;14402;48.178;11.566;2022-10-23T02:02:41;2.7;;;0.9;;
26824;SDS011;14402;48.178;11.566;2022-10-23T02:03:11;2.7;;;0.9;;
26824;SDS011;14402;48.178;11.566;2022-10-23T02:03:41;1.9;;;0.8;;
26824;SDS011;14402;48.178;11.566;2022-10-23T02:04:12;1.0;;;0.7;;
26824;SDS011;14402;48.178;11.566;2022-10-23T02:04:44;1.0;;;0.7;;
26824;SDS011;14402;48.178;11.566;2022-10-23T02:05:13;1.0;;;0.7;;
26824;SDS011;14402;48.178;11.566;2022-10-23T02:05:42;1.7;;;0.8;;
26824;SDS011;14402;48.178;11.566;2022-10-23T02:06:12;2.4;;;0.8;;
26824;SDS011;14402;48.178;11.566;2022-10-23T02:06:42;2.4;;;0.8;;
26824;SDS011;14402;48.178;11.566;2022-10-23T02:07:12;2.4;;;0.8;;
26824;SDS011;14402;48.178;11.566;2022-10-23T02:07:42;2.3;;;0.8;;
26824;SDS011;14402;48.178;11.566;2022-10-23T02:08:12;2.2;;;0.7;;
26824;SDS011;14402;48.178;11.566;2022-10-23T02:08:42;2.2;;;0.7;;
26824;SDS011;14402;48.178;11.566;2022-10-23T02:09:12;2.2;;;0.7;;
26824;SDS011;14402;48.178;11.566;2022-10-23T02:09:42;2.0;;;0.7;;
26824;SDS011;14402;48.178;11.566;2022-10-23T02:10:12;1.7;;;0.7;;
26824;SDS011;14402;48.178;11.566;2022-10-23T02:10:44;1.7;;;0.7;;
26824;SDS011;14402;48.178;11.566;2022-10-23T02:11:13;1.7;;;0.7;;
26824;SDS011;14402;48.178;11.566;2022-10-23T02:11:43;1.4;;;0.7;;
26824;SDS011;14402;48.178;11.566;2022-10-23T02:12:15;1.0;;;0.7;;
26824;SDS011;14402;48.178;11.566;2022-10-23T02:12:46;1.0;;;0.7;;
26824;SDS011;14402;48.178;11.566;2022-10-23T02:13:15;1.0;;;0.7;;
26824;SDS011;14402;48.178;11.566;2022-10-23T02:13:43;1.1;;;0.8;;
26824;SDS011;14402;48.178;11.566;2022-10-23T02:14:15;1.3;;;0.8;;
26824;SDS011;14402;48.178;11.566;2022-10-23T02:14:44;1.3;;;0.8;;
26824;SDS011;14402;48.178;11.566;2022-10-23T02:15:14;1.3;;;0.8;;
26824;SDS011;14402;48.178;11.566;2022-10-23T02:15:44;1.5;;;0.9;;
26824;SDS011;14402;48.178;11.566;2022-10-23T02:16:15;1.8;;;0.9;;
26824;SDS011;14402;48.178;11.566;2022-10-23T02:16:44;1.8;;;0.9;;
26824;SDS011;14402;48.178;11.566;2022-10-23T02:17:18;1.8;;;0.9;;
26824;SDS011;14402;48.178;11.566;2022-10-23T02:17:46;1.8;;;0.9;;
26824;SDS011;14402;48.178;11.566;2022-10-23T02:18:17;1.8;;;0.8;;
26824;SDS011;14402;48.178;11.566;2022-10-23T02:18:45;1.8;;;0.8;;
26824;SDS011;14402;48.178;11.566;2022-10-23T02:19:16;1.8;;;0.8;;
26824;SDS011;14402;48.178;11.566;2022-10-23T02:19:45;2.4;;;0.9;;
26824;SDS011;14402;48.178;11.566;2022-10-23T02:20:16;3.1;;;1.0;;
26824;SDS011;14402;48.178;11.566;2022-10-23T02:20:44;3.1;;;1.0;;
26824;SDS011;14402;48.178;11.566;2022-10-23T02:21:15;3.1;;;1.0;;
26824;SDS011;14402;48.178;11.566;2022-10-23T02:21:47;2.1;;;0.9;;
26824;SDS011;14402;48.178;11.566;2022-10-23T02:22:15;1.1;;;0.8;;
26824;SDS011;14402;48.178;11.566;2022-10-23T02:22:45;1.1;;;0.8;;
26824;SDS011;14402;48.178;11.566;2022-10-23T02:23:16;1.1;;;0.8;;
26824;SDS011;14402;48.178;11.566;2022-10-23T02:23:45;1.7;;;0.9;;
26824;SDS011;14402;48.178;11.566;2022-10-23T02:24:15;2.3;;;0.9;;
26824;SDS011;14402;48.178;11.566;2022-10-23T02:24:46;2.3;;;0.9;;
26824;SDS011;14402;48.178;11.566;2022-10-23T02:25:15;2.3;;;0.9;;
26824;SDS011;14402;48.178;11.566;2022-10-23T02:25:46;2.3;;;1.0;;
26824;SDS011;14402;48.178;11.566;2022-10-23T02:26:15;2.3;;;1.1;;
26824;SDS011;14402;48.178;11.566;2022-10-23T02:26:47;2.3;;;1.1;;
26824;SDS011;14402;48.178;11.566;2022-10-23T02:27:16;2.3;;;1.1;;
26824;SDS011;14402;48.178;11.566;2022-10-23T02:27:46;2.6;;;1.1;;
26824;SDS011;14402;48.178;11.566;2022-10-23T02:28:15;2.9;;;1.1;;
26824;SDS011;14402;48.178;11.566;2022-10-23T02:28:46;2.9;;;1.1;;
26824;SDS011;14402;48.178;11.566;2022-10-23T02:29:16;2.9;;;1.1;;
26824;SDS011;14402;48.178;11.566;2022-10-23T02:29:46;2.2;;;1.0;;
26824;SDS011;14402;48.178;11.566;2022-10-23T02:30:16;1.4;;;1.0;;
26824;SDS011;14402;48.178;11.566;2022-10-23T02:30:46;1.4;;;1.0;;
26824;SDS011;14402;48.178;11.566;2022-10-23T02:31:16;1.4;;;1.0;;
26824;SDS011;14402;48.178;11.566;2022-10-23T02:31:45;1.6;;;1.1;;
26824;SDS011;14402;48.178;11.566;2022-10-23T02:32:16;1.9;;;1.2;;
26824;SDS011;14402;48.178;11.566;2022-10-23T02:32:46;1.9;;;1.2;;
26824;SDS011;14402;48.178;11.566;2022-10-23T02:33:16;1.9;;;1.2;;
26824;SDS011;14402;48.178;11.566;2022-10-23T02:33:45;2.2;;;1.2;;
26824;SDS011;14402;48.178;11.566;2022-10-23T02:34:16;2.6;;;1.2;;
26824;SDS011;14402;48.178;11.566;2022-10-23T02:34:46;2.6;;;1.2;;
26824;SDS011;14402;48.178;11.566;2022-10-23T02:35:16;2.6;;;1.2;;
26824;SDS011;14402;48.178;11.566;2022-10-23T02:35:46;2.5;;;1.2;;
26824;SDS011;14402;48.178;11.566;2022-10-23T02:36:16;2.5;;;1.1;;
26824;SDS011;14402;48.178;11.566;2022-10-23T02:36:46;2.5;;;1.1;;
26824;SDS011;14402;48.178;11.566;2022-10-23T02:37:16;2.5;;;1.1;;
26824;SDS011;14402;48.178;11.566;2022-10-23T02:37:50;3.2;;;1.1;;
26824;SDS011;14402;48.178;11.566;2022-10-23T02:38:33;3.9;;;1.1;;
26824;SDS011;14402;48.178;11.566;2022-10-23T02:38:46;3.9;;;1.1;;
26824;SDS011;14402;48.178;11.566;2022-10-23T02:39:16;3.9;;;1.1;;
26824;SDS011;14402;48.178;11.566;2022-10-23T02:39:46;2.9;;;1.1;;
26824;SDS011;14402;48.178;11.566;2022-10-23T02:40:16;1.9;;;1.1;;
26824;SDS011;14402;48.178;11.566;2022-10-23T02:40:47;1.9;;;1.1;;
26824;SDS011;14402;48.178;11.566;2022-10-23T02:41:21;1.9;;;1.1;;
26824;SDS011;14402;48.178;11.566;2022-10-23T02:41:48;2.9;;;1.2;;
26824;SDS011;14402;48.178;11.566;2022-10-23T02:42:17;3.9;;;1.2;;
26824;SDS011;14402;48.178;11.566;2022-10-23T02:42:48;3.9;;;1.2;;
26824;SDS011;14402;48.178;11.566;2022-10-23T02:43:19;3.9;;;1.2;;
26824;SDS011;14402;48.178;11.566;2022-10-23T02:43:49;3.2;;;1.1;;
26824;SDS011;14402;48.178;11.566;2022-10-23T02:44:21;2.6;;;1.0;;
26824;SDS011;14402;48.178;11.566;2022-10-23T02:44:51;2.6;;;1.0;;
26824;SDS011;14402;48.178;11.566;2022-10-23T02:45:18;2.6;;;1.0;;
26824;SDS011;14402;48.178;11.566;2022-10-23T02:45:49;2.0;;;1.0;;
26824;SDS011;14402;48.178;11.566;2022-10-23T02:46:19;1.5;;;1.0;;
26824;SDS011;14402;48.178;11.566;2022-10-23T02:46:49;1.5;;;1.0;;
26824;SDS011;14402;48.178;11.566;2022-10-23T02:47:20;1.5;;;1.0;;
26824;SDS011;14402;48.178;11.566;2022-10-23T02:47:49;2.4;;;1.1;;
26824;SDS011;14402;48.178;11.566;2022-10-23T02:48:18;3.3;;;1.2;;
26824;SDS011;14402;48.178;11.566;2022-10-23T02:48:50;3.3;;;1.2;;
26824;SDS011;14402;48.178;11.566;2022-10-23T02:49:19;3.3;;;1.2;;
26824;SDS011;14402;48.178;11.566;2022-10-23T02:49:50;2.8;;;1.0;;
26824;SDS011;14402;48.178;11.566;2022-10-23T02:50:21;2.2;;;0.9;;
26824;SDS011;14402;48.178;11.566;2022-10-23T02:50:49;2.2;;;0.9;;
26824;SDS011;14402;48.178;11.566;2022-10-23T02:51:20;2.2;;;0.9;;
26824;SDS011;14402;48.178;11.566;2022-10-23T02:51:52;1.7;;;0.9;;
26824;SDS011;14402;48.178;11.566;2022-10-23T02:52:19;1.1;;;0.8;;
26824;SDS011;14402;48.178;11.566;2022-10-23T02:52:51;1.1;;;0.8;;
26824;SDS011;14402;48.178;11.566;2022-10-23T02:53:20;1.1;;;0.8;;
26824;SDS011;14402;48.178;11.566;2022-10-23T02:53:51;1.8;;;0.8;;
26824;SDS011;14402;48.178;11.566;2022-10-23T02:54:19;2.6;;;0.8;;
26824;SDS011;14402;48.178;11.566;2022-10-23T02:54:54;2.6;;;0.8;;
26824;SDS011;14402;48.178;11.566;2022-10-23T02:55:21;2.6;;;0.8;;
26824;SDS011;14402;48.178;11.566;2022-10-23T02:55:52;1.8;;;0.8;;
26824;SDS011;14402;48.178;11.566;2022-10-23T02:56:20;0.9;;;0.8;;
26824;SDS011;14402;48.178;11.566;2022-10-23T02:56:49;0.9;;;0.8;;
26824;SDS011;14402;48.178;11.566;2022-10-23T02:57:21;0.9;;;0.8;;
26824;SDS011;14402;48.178;11.566;2022-10-23T02:57:50;1.1;;;1.0;;
26824;SDS011;14402;48.178;11.566;2022-10-23T02:58:21;1.3;;;1.1;;
26824;SDS011;14402;48.178;11.566;2022-10-23T02:58:50;1.3;;;1.1;;
26824;SDS011;14402;48.178;11.566;2022-10-23T02:59:20;1.3;;;1.1;;
26824;SDS011;14402;48.178;11.566;2022-10-23T02:59:51;1.7;;;1.0;;
26824;SDS011;14402;48.178;11.566;2022-10-23T03:00:20;2.1;;;1.0;;
26824;SDS011;14402;48.178;11.566;2022-10-23T03:00:51;2.1;;;1.0;;
26824;SDS011;14402;48.178;11.566;2022-10-23T03:01:20;2.1;;;1.0;;
26824;SDS011;14402;48.178;11.566;2022-10-23T03:01:50;1.8;;;0.9;;
26824;SDS011;14402;48.178;11.566;2022-10-23T03:02:21;1.6;;;0.8;;
26824;SDS011;14402;48.178;11.566;2022-10-23T03:02:52;1.6;;;0.8;;
26824;SDS011;14402;48.178;11.566;2022-10-23T03:03:21;1.6;;;0.8;;
26824;SDS011;14402;48.178;11.566;2022-10-23T03:03:50;1.7;;;0.9;;
26824;SDS011;14402;48.178;11.566;2022-10-23T03:04:20;1.8;;;1.0;;